sensor_id;sensor_type;location;lat;lon;timestamp;pressure;altitude;pressure_sealevel;temperature;humidity
31717;BME280;18301;51.076;17.046;2022-07-29T00:04:37;100429.50;;;18.51;48.68
31717;BME280;18301;51.076;17.046;2022-07-29T00:09:39;100424.69;;;18.45;49.06
31717;BME280;18301;51.076;17.046;2022-07-29T00:14:53;100426.72;;;18.43;48.95
31717;BME280;18301;51.076;17.046;2022-07-29T00:19:55;100427.19;;;18.38;49.34
31717;BME280;18301;51.076;17.046;2022-07-29T00:24:57;100427.50;;;18.35;49.58
31717;BME280;18301;51.076;17.046;2022-07-29T00:29:58;100427.88;;;18.32;49.73
31717;BME280;18301;51.076;17.046;2022-07-29T00:35:00;100426.47;;;18.28;49.96
31717;BME280;18301;51.076;17.046;2022-07-29T00:40:20;100419.28;;;18.27;50.07
31717;BME280;18301;51.076;17.046;2022-07-29T00:45:24;100420.97;;;18.20;50.52
31717;BME280;18301;51.076;17.046;2022-07-29T00:50:26;100416.16;;;18.13;50.62
31717;BME280;18301;51.076;17.046;2022-07-29T00:55:28;100403.31;;;18.06;50.64
31717;BME280;18301;51.076;17.046;2022-07-29T01:00:30;100409.63;;;18.06;51.04
31717;BME280;18301;51.076;17.046;2022-07-29T01:05:32;100417.78;;;17.98;51.27
31717;BME280;18301;51.076;17.046;2022-07-29T01:10:52;100411.94;;;17.93;51.48
31717;BME280;18301;51.076;17.046;2022-07-29T01:15:59;100413.28;;;17.89;52.02
31717;BME280;18301;51.076;17.046;2022-07-29T01:21:20;100426.53;;;17.84;51.79
31717;BME280;18301;51.076;17.046;2022-07-29T01:32:31;100404.25;;;17.70;52.15
31717;BME280;18301;51.076;17.046;2022-07-29T01:38:28;100399.41;;;17.64;52.58
31717;BME280;18301;51.076;17.046;2022-07-29T01:43:13;100398.00;;;17.60;52.77
31717;BME280;18301;51.076;17.046;2022-07-29T01:48:25;100407.84;;;17.53;53.18
31717;BME280;18301;51.076;17.046;2022-07-29T01:53:34;100403.03;;;17.47;53.37
31717;BME280;18301;51.076;17.046;2022-07-29T01:58:40;100399.59;;;17.45;53.29
31717;BME280;18301;51.076;17.046;2022-07-29T02:03:44;100394.44;;;17.42;53.36
31717;BME280;18301;51.076;17.046;2022-07-29T02:08:47;100389.94;;;17.33;53.85
31717;BME280;18301;51.076;17.046;2022-07-29T02:13:52;100398.44;;;17.30;54.34
31717;BME280;18301;51.076;17.046;2022-07-29T02:18:57;100385.09;;;17.26;54.24
31717;BME280;18301;51.076;17.046;2022-07-29T02:24:01;100387.47;;;17.21;54.36
31717;BME280;18301;51.076;17.046;2022-07-29T02:29:04;100392.84;;;17.13;54.35
31717;BME280;18301;51.076;17.046;2022-07-29T02:34:07;100388.72;;;17.09;55.50
31717;BME280;18301;51.076;17.046;2022-07-29T02:39:11;100387.91;;;16.99;55.31
31717;BME280;18301;51.076;17.046;2022-07-29T02:44:15;100396.81;;;17.01;55.16
31717;BME280;18301;51.076;17.046;2022-07-29T02:54:40;100393.13;;;16.92;55.38
31717;BME280;18301;51.076;17.046;2022-07-29T02:59:44;100391.19;;;16.85;55.99
31717;BME280;18301;51.076;17.046;2022-07-29T03:04:49;100392.03;;;16.85;55.92
31717;BME280;18301;51.076;17.046;2022-07-29T03:09:51;100393.19;;;16.83;56.23
31717;BME280;18301;51.076;17.046;2022-07-29T03:14:54;100391.09;;;16.76;56.30
31717;BME280;18301;51.076;17.046;2022-07-29T03:19:55;100399.84;;;16.70;56.57
31717;BME280;18301;51.076;17.046;2022-07-29T03:24:57;100390.66;;;16.71;56.77
31717;BME280;18301;51.076;17.046;2022-07-29T03:29:58;100393.06;;;16.74;56.87
31717;BME280;18301;51.076;17.046;2022-07-29T03:35:00;100397.59;;;16.66;57.22
31717;BME280;18301;51.076;17.046;2022-07-29T03:40:05;100398.44;;;16.66;57.04
31717;BME280;18301;51.076;17.046;2022-07-29T03:45:10;100405.31;;;16.70;57.00
31717;BME280;18301;51.076;17.046;2022-07-29T03:50:14;100410.16;;;16.76;57.04
31717;BME280;18301;51.076;17.046;2022-07-29T03:55:16;100408.16;;;16.78;57.10
31717;BME280;18301;51.076;17.046;2022-07-29T04:00:18;100413.63;;;16.78;57.25
31717;BME280;18301;51.076;17.046;2022-07-29T04:05:20;100407.78;;;16.91;57.24
31717;BME280;18301;51.076;17.046;2022-07-29T04:10:22;100411.47;;;17.00;57.04
31717;BME280;18301;51.076;17.046;2022-07-29T04:15:32;100415.66;;;17.12;56.97
31717;BME280;18301;51.076;17.046;2022-07-29T04:20:34;100408.41;;;17.21;56.89
31717;BME280;18301;51.076;17.046;2022-07-29T04:25:39;100407.25;;;17.23;57.07
31717;BME280;18301;51.076;17.046;2022-07-29T04:30:42;100401.16;;;17.30;56.97
31717;BME280;18301;51.076;17.046;2022-07-29T04:35:44;100389.69;;;17.44;57.03
31717;BME280;18301;51.076;17.046;2022-07-29T04:40:52;100394.50;;;17.68;56.48
31717;BME280;18301;51.076;17.046;2022-07-29T04:45:54;100393.59;;;17.85;56.28
31717;BME280;18301;51.076;17.046;2022-07-29T04:50:56;100387.63;;;18.16;55.86
31717;BME280;18301;51.076;17.046;2022-07-29T04:55:58;100394.59;;;18.36;55.57
31717;BME280;18301;51.076;17.046;2022-07-29T05:01:00;100393.00;;;18.68;55.10
31717;BME280;18301;51.076;17.046;2022-07-29T05:06:02;100390.16;;;18.86;54.38
31717;BME280;18301;51.076;17.046;2022-07-29T05:11:03;100394.66;;;19.03;54.35
31717;BME280;18301;51.076;17.046;2022-07-29T05:16:13;100403.56;;;19.30;53.39
31717;BME280;18301;51.076;17.046;2022-07-29T05:21:15;100401.88;;;19.37;53.30
31717;BME280;18301;51.076;17.046;2022-07-29T05:26:17;100398.47;;;19.43;53.32
31717;BME280;18301;51.076;17.046;2022-07-29T05:31:18;100403.91;;;19.35;53.33
31717;BME280;18301;51.076;17.046;2022-07-29T05:36:20;100408.69;;;19.33;53.66
31717;BME280;18301;51.076;17.046;2022-07-29T05:41:21;100399.16;;;19.37;53.58
31717;BME280;18301;51.076;17.046;2022-07-29T05:46:23;100387.69;;;19.50;53.25
31717;BME280;18301;51.076;17.046;2022-07-29T05:51:24;100389.03;;;19.54;53.17
31717;BME280;18301;51.076;17.046;2022-07-29T05:56:26;100395.69;;;19.51;53.54
31717;BME280;18301;51.076;17.046;2022-07-29T06:01:27;100401.88;;;19.70;53.11
31717;BME280;18301;51.076;17.046;2022-07-29T06:06:29;100401.88;;;19.78;53.30
31717;BME280;18301;51.076;17.046;2022-07-29T06:11:30;100393.81;;;19.93;53.36
31717;BME280;18301;51.076;17.046;2022-07-29T06:16:32;100391.53;;;20.21;53.32
31717;BME280;18301;51.076;17.046;2022-07-29T06:21:34;100394.78;;;20.72;52.41
31717;BME280;18301;51.076;17.046;2022-07-29T06:26:39;100392.75;;;20.97;51.30
31717;BME280;18301;51.076;17.046;2022-07-29T06:31:41;100398.44;;;21.19;51.38
31717;BME280;18301;51.076;17.046;2022-07-29T06:36:42;100394.72;;;21.34;50.56
31717;BME280;18301;51.076;17.046;2022-07-29T06:41:49;100396.44;;;21.35;50.58
31717;BME280;18301;51.076;17.046;2022-07-29T06:46:51;100398.75;;;21.47;50.35
31717;BME280;18301;51.076;17.046;2022-07-29T06:51:54;100401.03;;;21.81;49.87
31717;BME280;18301;51.076;17.046;2022-07-29T06:56:56;100401.94;;;22.11;49.44
31717;BME280;18301;51.076;17.046;2022-07-29T07:01:57;100391.91;;;22.18;48.43
31717;BME280;18301;51.076;17.046;2022-07-29T07:06:59;100394.75;;;22.25;47.95
31717;BME280;18301;51.076;17.046;2022-07-29T07:12:00;100396.44;;;22.11;48.19
31717;BME280;18301;51.076;17.046;2022-07-29T07:17:02;100389.91;;;22.42;48.02
31717;BME280;18301;51.076;17.046;2022-07-29T07:22:05;100384.78;;;22.90;47.03
31717;BME280;18301;51.076;17.046;2022-07-29T07:27:06;100380.00;;;23.13;46.69
31717;BME280;18301;51.076;17.046;2022-07-29T07:32:08;100372.94;;;23.26;46.52
31717;BME280;18301;51.076;17.046;2022-07-29T07:37:10;100382.94;;;23.33;46.45
31717;BME280;18301;51.076;17.046;2022-07-29T07:42:11;100370.28;;;23.39;46.17
31717;BME280;18301;51.076;17.046;2022-07-29T07:47:15;100374.50;;;23.56;46.13
31717;BME280;18301;51.076;17.046;2022-07-29T07:52:22;100374.22;;;23.73;45.81
31717;BME280;18301;51.076;17.046;2022-07-29T07:57:23;100377.88;;;23.58;46.16
31717;BME280;18301;51.076;17.046;2022-07-29T08:02:25;100362.50;;;23.42;46.21
31717;BME280;18301;51.076;17.046;2022-07-29T08:07:26;100383.69;;;23.42;46.56
31717;BME280;18301;51.076;17.046;2022-07-29T08:12:28;100381.47;;;23.52;46.34
31717;BME280;18301;51.076;17.046;2022-07-29T08:17:29;100368.81;;;23.64;46.07
31717;BME280;18301;51.076;17.046;2022-07-29T08:22:35;100359.91;;;23.84;45.55
31717;BME280;18301;51.076;17.046;2022-07-29T08:27:37;100373.06;;;23.88;46.01
31717;BME280;18301;51.076;17.046;2022-07-29T08:32:44;100377.25;;;24.12;45.76
31717;BME280;18301;51.076;17.046;2022-07-29T08:37:55;100370.84;;;24.40;45.70
31717;BME280;18301;51.076;17.046;2022-07-29T08:42:59;100376.94;;;24.64;44.91
31717;BME280;18301;51.076;17.046;2022-07-29T08:48:01;100374.34;;;24.55;45.21
31717;BME280;18301;51.076;17.046;2022-07-29T08:53:02;100361.25;;;24.71;44.75
31717;BME280;18301;51.076;17.046;2022-07-29T08:58:04;100359.59;;;24.83;44.77
31717;BME280;18301;51.076;17.046;2022-07-29T09:03:09;100367.50;;;25.06;44.40
31717;BME280;18301;51.076;17.046;2022-07-29T09:08:15;100355.28;;;25.35;44.31
31717;BME280;18301;51.076;17.046;2022-07-29T09:13:17;100357.59;;;25.98;43.23
31717;BME280;18301;51.076;17.046;2022-07-29T09:23:34;100349.44;;;26.36;42.36
31717;BME280;18301;51.076;17.046;2022-07-29T09:28:41;100346.06;;;26.28;42.82
31717;BME280;18301;51.076;17.046;2022-07-29T09:33:43;100352.88;;;26.25;42.81
31717;BME280;18301;51.076;17.046;2022-07-29T09:38:57;100345.91;;;26.03;42.98
31717;BME280;18301;51.076;17.046;2022-07-29T09:43:59;100340.38;;;26.03;43.27
31717;BME280;18301;51.076;17.046;2022-07-29T09:49:12;100342.31;;;25.69;43.68
31717;BME280;18301;51.076;17.046;2022-07-29T09:54:26;100333.78;;;25.70;44.18
31717;BME280;18301;51.076;17.046;2022-07-29T09:59:28;100336.56;;;25.64;43.55
31717;BME280;18301;51.076;17.046;2022-07-29T10:04:40;100333.19;;;25.62;44.18
31717;BME280;18301;51.076;17.046;2022-07-29T10:09:56;100322.75;;;25.77;44.13
31717;BME280;18301;51.076;17.046;2022-07-29T10:14:58;100326.78;;;25.88;43.89
31717;BME280;18301;51.076;17.046;2022-07-29T10:20:03;100320.81;;;26.11;43.93
31717;BME280;18301;51.076;17.046;2022-07-29T10:25:07;100323.56;;;26.11;43.68
31717;BME280;18301;51.076;17.046;2022-07-29T10:30:09;100308.28;;;26.02;44.07
31717;BME280;18301;51.076;17.046;2022-07-29T10:40:36;100315.81;;;26.33;43.75
31717;BME280;18301;51.076;17.046;2022-07-29T10:45:59;100309.34;;;26.59;43.14
31717;BME280;18301;51.076;17.046;2022-07-29T10:51:04;100304.13;;;26.82;42.69
31717;BME280;18301;51.076;17.046;2022-07-29T10:56:31;100295.63;;;26.77;42.21
31717;BME280;18301;51.076;17.046;2022-07-29T11:01:36;100291.81;;;26.72;42.45
31717;BME280;18301;51.076;17.046;2022-07-29T11:22:53;100295.53;;;26.91;41.69
31717;BME280;18301;51.076;17.046;2022-07-29T11:28:09;100295.53;;;26.91;41.84
31717;BME280;18301;51.076;17.046;2022-07-29T11:33:32;100291.75;;;26.85;41.37
31717;BME280;18301;51.076;17.046;2022-07-29T11:39:25;100299.63;;;26.81;41.03
31717;BME280;18301;51.076;17.046;2022-07-29T11:44:59;100295.88;;;26.69;41.50
31717;BME280;18301;51.076;17.046;2022-07-29T11:50:31;100298.56;;;26.82;41.53
31717;BME280;18301;51.076;17.046;2022-07-29T11:55:36;100307.78;;;27.08;41.17
31717;BME280;18301;51.076;17.046;2022-07-29T12:00:52;100306.16;;;26.94;41.30
31717;BME280;18301;51.076;17.046;2022-07-29T12:05:56;100298.53;;;26.89;41.61
31717;BME280;18301;51.076;17.046;2022-07-29T12:10:57;100293.75;;;27.03;41.60
31717;BME280;18301;51.076;17.046;2022-07-29T12:15:59;100289.47;;;27.07;41.67
31717;BME280;18301;51.076;17.046;2022-07-29T12:21:02;100273.97;;;27.31;41.08
31717;BME280;18301;51.076;17.046;2022-07-29T12:26:08;100278.38;;;27.07;41.00
31717;BME280;18301;51.076;17.046;2022-07-29T12:31:13;100268.13;;;27.14;41.10
31717;BME280;18301;51.076;17.046;2022-07-29T12:36:35;100257.06;;;27.07;41.85
31717;BME280;18301;51.076;17.046;2022-07-29T12:41:38;100265.69;;;27.24;41.31
31717;BME280;18301;51.076;17.046;2022-07-29T12:46:40;100252.38;;;27.08;42.04
31717;BME280;18301;51.076;17.046;2022-07-29T12:51:41;100248.53;;;27.16;42.01
31717;BME280;18301;51.076;17.046;2022-07-29T12:56:44;100257.47;;;27.11;41.17
31717;BME280;18301;51.076;17.046;2022-07-29T13:01:47;100256.16;;;27.20;41.87
31717;BME280;18301;51.076;17.046;2022-07-29T13:07:06;100247.75;;;27.52;40.81
31717;BME280;18301;51.076;17.046;2022-07-29T13:12:12;100235.63;;;27.71;40.51
31717;BME280;18301;51.076;17.046;2022-07-29T13:17:19;100225.75;;;27.75;40.14
31717;BME280;18301;51.076;17.046;2022-07-29T13:22:33;100223.44;;;27.54;40.78
31717;BME280;18301;51.076;17.046;2022-07-29T13:27:36;100217.81;;;27.61;40.92
31717;BME280;18301;51.076;17.046;2022-07-29T13:32:38;100220.22;;;27.75;41.26
31717;BME280;18301;51.076;17.046;2022-07-29T13:37:40;100215.16;;;27.91;41.02
31717;BME280;18301;51.076;17.046;2022-07-29T13:42:42;100209.78;;;27.77;40.84
31717;BME280;18301;51.076;17.046;2022-07-29T13:47:43;100213.44;;;27.71;40.89
31717;BME280;18301;51.076;17.046;2022-07-29T13:52:49;100215.50;;;27.76;41.41
31717;BME280;18301;51.076;17.046;2022-07-29T13:57:52;100212.56;;;27.71;40.89
31717;BME280;18301;51.076;17.046;2022-07-29T14:02:53;100206.34;;;27.57;41.41
31717;BME280;18301;51.076;17.046;2022-07-29T14:07:55;100198.78;;;27.46;41.54
31717;BME280;18301;51.076;17.046;2022-07-29T14:12:56;100207.25;;;27.51;41.45
31717;BME280;18301;51.076;17.046;2022-07-29T14:17:58;100195.34;;;27.50;41.92
31717;BME280;18301;51.076;17.046;2022-07-29T14:22:59;100199.56;;;27.53;41.67
31717;BME280;18301;51.076;17.046;2022-07-29T14:28:01;100198.25;;;27.55;42.13
31717;BME280;18301;51.076;17.046;2022-07-29T14:33:02;100195.72;;;27.54;42.35
31717;BME280;18301;51.076;17.046;2022-07-29T14:38:04;100184.38;;;27.74;42.19
31717;BME280;18301;51.076;17.046;2022-07-29T14:43:05;100185.25;;;27.74;42.14
31717;BME280;18301;51.076;17.046;2022-07-29T14:48:07;100192.41;;;27.64;42.07
31717;BME280;18301;51.076;17.046;2022-07-29T14:53:08;100190.63;;;27.51;41.98
31717;BME280;18301;51.076;17.046;2022-07-29T14:58:10;100186.19;;;27.68;42.03
31717;BME280;18301;51.076;17.046;2022-07-29T15:03:16;100181.22;;;27.52;42.59
31717;BME280;18301;51.076;17.046;2022-07-29T15:08:24;100185.47;;;27.54;42.09
31717;BME280;18301;51.076;17.046;2022-07-29T15:13:26;100178.91;;;27.30;43.02
31717;BME280;18301;51.076;17.046;2022-07-29T15:18:28;100173.94;;;27.14;42.99
31717;BME280;18301;51.076;17.046;2022-07-29T15:23:29;100173.41;;;26.99;43.64
31717;BME280;18301;51.076;17.046;2022-07-29T15:28:31;100180.63;;;27.00;43.50
31717;BME280;18301;51.076;17.046;2022-07-29T15:33:32;100168.84;;;27.11;43.49
31717;BME280;18301;51.076;17.046;2022-07-29T15:38:34;100160.66;;;27.23;43.72
31717;BME280;18301;51.076;17.046;2022-07-29T15:43:44;100155.19;;;27.16;43.56
31717;BME280;18301;51.076;17.046;2022-07-29T15:48:47;100163.19;;;26.99;43.51
31717;BME280;18301;51.076;17.046;2022-07-29T15:53:49;100158.03;;;26.78;44.09
31717;BME280;18301;51.076;17.046;2022-07-29T15:58:54;100157.25;;;26.71;44.04
31717;BME280;18301;51.076;17.046;2022-07-29T16:03:56;100156.03;;;26.60;44.41
31717;BME280;18301;51.076;17.046;2022-07-29T16:08:58;100148.81;;;26.59;44.46
31717;BME280;18301;51.076;17.046;2022-07-29T16:14:00;100147.59;;;26.55;44.47
31717;BME280;18301;51.076;17.046;2022-07-29T16:19:03;100153.97;;;26.55;46.43
31717;BME280;18301;51.076;17.046;2022-07-29T16:24:05;100140.41;;;26.40;48.97
31717;BME280;18301;51.076;17.046;2022-07-29T16:29:07;100150.16;;;26.50;48.20
31717;BME280;18301;51.076;17.046;2022-07-29T16:34:08;100143.38;;;26.46;48.28
31717;BME280;18301;51.076;17.046;2022-07-29T16:39:10;100139.44;;;26.28;49.33
31717;BME280;18301;51.076;17.046;2022-07-29T16:44:12;100134.69;;;26.35;49.55
31717;BME280;18301;51.076;17.046;2022-07-29T16:49:14;100137.09;;;26.25;49.79
31717;BME280;18301;51.076;17.046;2022-07-29T16:54:19;100139.22;;;26.23;50.30
31717;BME280;18301;51.076;17.046;2022-07-29T16:59:21;100132.75;;;26.11;49.92
31717;BME280;18301;51.076;17.046;2022-07-29T17:04:23;100136.78;;;26.08;49.45
31717;BME280;18301;51.076;17.046;2022-07-29T17:09:24;100136.84;;;25.95;49.71
31717;BME280;18301;51.076;17.046;2022-07-29T17:14:27;100125.66;;;25.83;50.15
31717;BME280;18301;51.076;17.046;2022-07-29T17:19:32;100124.19;;;25.67;50.98
31717;BME280;18301;51.076;17.046;2022-07-29T17:24:35;100123.63;;;25.45;51.15
31717;BME280;18301;51.076;17.046;2022-07-29T17:29:38;100128.97;;;25.40;51.91
31717;BME280;18301;51.076;17.046;2022-07-29T17:34:41;100135.59;;;25.26;51.96
31717;BME280;18301;51.076;17.046;2022-07-29T17:39:43;100132.88;;;25.13;52.10
31717;BME280;18301;51.076;17.046;2022-07-29T17:44:44;100143.84;;;25.06;52.50
31717;BME280;18301;51.076;17.046;2022-07-29T17:49:46;100146.84;;;25.04;52.60
31717;BME280;18301;51.076;17.046;2022-07-29T17:54:48;100147.72;;;24.98;52.47
31717;BME280;18301;51.076;17.046;2022-07-29T17:59:49;100154.50;;;24.89;53.12
31717;BME280;18301;51.076;17.046;2022-07-29T18:04:51;100152.38;;;24.78;53.73
31717;BME280;18301;51.076;17.046;2022-07-29T18:09:52;100160.84;;;24.56;54.21
31717;BME280;18301;51.076;17.046;2022-07-29T18:15:00;100163.59;;;24.43;54.83
31717;BME280;18301;51.076;17.046;2022-07-29T18:20:02;100165.94;;;24.46;54.44
31717;BME280;18301;51.076;17.046;2022-07-29T18:25:05;100165.53;;;24.49;54.17
31717;BME280;18301;51.076;17.046;2022-07-29T18:30:07;100168.44;;;24.41;55.14
31717;BME280;18301;51.076;17.046;2022-07-29T18:35:09;100161.66;;;24.37;54.86
31717;BME280;18301;51.076;17.046;2022-07-29T18:40:11;100163.34;;;24.38;54.81
31717;BME280;18301;51.076;17.046;2022-07-29T18:45:13;100165.47;;;24.36;55.56
31717;BME280;18301;51.076;17.046;2022-07-29T18:50:20;100161.63;;;24.30;55.10
31717;BME280;18301;51.076;17.046;2022-07-29T18:55:28;100160.13;;;24.21;55.34
31717;BME280;18301;51.076;17.046;2022-07-29T19:00:30;100162.88;;;24.15;55.26
31717;BME280;18301;51.076;17.046;2022-07-29T19:05:32;100158.63;;;24.12;55.96
31717;BME280;18301;51.076;17.046;2022-07-29T19:10:34;100157.75;;;24.05;55.78
31717;BME280;18301;51.076;17.046;2022-07-29T19:15:35;100160.06;;;24.01;56.17
31717;BME280;18301;51.076;17.046;2022-07-29T19:20:37;100153.91;;;23.93;56.41
31717;BME280;18301;51.076;17.046;2022-07-29T19:25:39;100155.31;;;23.82;57.77
31717;BME280;18301;51.076;17.046;2022-07-29T19:30:54;100153.00;;;23.79;56.88
31717;BME280;18301;51.076;17.046;2022-07-29T19:35:55;100160.81;;;23.75;56.71
31717;BME280;18301;51.076;17.046;2022-07-29T19:40:57;100153.81;;;23.73;57.06
31717;BME280;18301;51.076;17.046;2022-07-29T19:45:59;100155.91;;;23.71;57.35
31717;BME280;18301;51.076;17.046;2022-07-29T19:51:00;100146.09;;;23.61;57.89
31717;BME280;18301;51.076;17.046;2022-07-29T19:56:02;100141.84;;;23.52;57.77
31717;BME280;18301;51.076;17.046;2022-07-29T20:01:04;100146.66;;;23.43;57.88
31717;BME280;18301;51.076;17.046;2022-07-29T20:06:11;100158.47;;;23.37;58.26
31717;BME280;18301;51.076;17.046;2022-07-29T20:11:13;100159.88;;;23.27;59.16
31717;BME280;18301;51.076;17.046;2022-07-29T20:16:14;100157.31;;;23.18;59.38
31717;BME280;18301;51.076;17.046;2022-07-29T20:21:16;100155.34;;;23.12;59.64
31717;BME280;18301;51.076;17.046;2022-07-29T20:26:18;100156.78;;;23.08;60.20
31717;BME280;18301;51.076;17.046;2022-07-29T20:31:19;100162.69;;;23.05;60.65
31717;BME280;18301;51.076;17.046;2022-07-29T20:36:21;100161.41;;;23.01;60.87
31717;BME280;18301;51.076;17.046;2022-07-29T20:41:23;100161.06;;;22.89;61.39
31717;BME280;18301;51.076;17.046;2022-07-29T20:46:24;100165.47;;;22.84;61.80
31717;BME280;18301;51.076;17.046;2022-07-29T20:51:26;100173.94;;;22.82;61.52
31717;BME280;18301;51.076;17.046;2022-07-29T20:56:28;100172.69;;;22.85;61.41
31717;BME280;18301;51.076;17.046;2022-07-29T21:01:29;100171.41;;;22.87;61.72
31717;BME280;18301;51.076;17.046;2022-07-29T21:06:31;100168.47;;;22.89;61.94
31717;BME280;18301;51.076;17.046;2022-07-29T21:11:32;100163.38;;;22.86;61.98
31717;BME280;18301;51.076;17.046;2022-07-29T21:16:45;100150.66;;;22.85;62.08
31717;BME280;18301;51.076;17.046;2022-07-29T21:21:46;100143.84;;;22.81;62.03
31717;BME280;18301;51.076;17.046;2022-07-29T21:26:48;100139.81;;;22.77;61.80
31717;BME280;18301;51.076;17.046;2022-07-29T21:32:09;100147.16;;;22.69;62.42
31717;BME280;18301;51.076;17.046;2022-07-29T21:37:11;100131.84;;;22.60;62.04
31717;BME280;18301;51.076;17.046;2022-07-29T21:42:13;100130.06;;;22.52;62.52
31717;BME280;18301;51.076;17.046;2022-07-29T21:47:14;100134.84;;;22.44;62.92
31717;BME280;18301;51.076;17.046;2022-07-29T21:52:16;100148.09;;;22.34;62.61
31717;BME280;18301;51.076;17.046;2022-07-29T21:57:18;100146.72;;;22.23;62.66
31717;BME280;18301;51.076;17.046;2022-07-29T22:02:19;100151.09;;;22.17;63.14
31717;BME280;18301;51.076;17.046;2022-07-29T22:07:21;100156.00;;;22.07;63.55
31717;BME280;18301;51.076;17.046;2022-07-29T22:12:22;100127.59;;;22.00;63.75
31717;BME280;18301;51.076;17.046;2022-07-29T22:17:24;100122.22;;;21.92;63.75
31717;BME280;18301;51.076;17.046;2022-07-29T22:22:26;100133.97;;;21.86;63.92
31717;BME280;18301;51.076;17.046;2022-07-29T22:27:27;100134.13;;;21.77;64.02
31717;BME280;18301;51.076;17.046;2022-07-29T22:32:32;100111.47;;;21.75;64.31
31717;BME280;18301;51.076;17.046;2022-07-29T22:37:34;100104.09;;;21.61;63.71
31717;BME280;18301;51.076;17.046;2022-07-29T22:42:36;100104.88;;;21.55;63.20
31717;BME280;18301;51.076;17.046;2022-07-29T22:47:41;100090.97;;;21.56;62.76
31717;BME280;18301;51.076;17.046;2022-07-29T22:52:48;100085.03;;;21.53;61.85
31717;BME280;18301;51.076;17.046;2022-07-29T22:57:50;100079.06;;;21.49;61.46
31717;BME280;18301;51.076;17.046;2022-07-29T23:02:51;100082.44;;;21.51;61.11
31717;BME280;18301;51.076;17.046;2022-07-29T23:07:53;100081.69;;;21.43;60.96
31717;BME280;18301;51.076;17.046;2022-07-29T23:12:54;100090.72;;;21.36;60.97
31717;BME280;18301;51.076;17.046;2022-07-29T23:17:56;100076.81;;;21.38;60.68
31717;BME280;18301;51.076;17.046;2022-07-29T23:22:58;100074.22;;;21.36;59.81
31717;BME280;18301;51.076;17.046;2022-07-29T23:28:00;100067.78;;;21.29;59.45
31717;BME280;18301;51.076;17.046;2022-07-29T23:33:02;100061.00;;;21.25;58.78
31717;BME280;18301;51.076;17.046;2022-07-29T23:38:03;100069.31;;;21.17;58.98
31717;BME280;18301;51.076;17.046;2022-07-29T23:43:05;100055.22;;;21.20;58.71
31717;BME280;18301;51.076;17.046;2022-07-29T23:48:09;100057.19;;;21.11;58.38
31717;BME280;18301;51.076;17.046;2022-07-29T23:53:10;100060.78;;;21.12;58.20
31717;BME280;18301;51.076;17.046;2022-07-29T23:58:12;100048.78;;;21.13;57.86
